sensor_id;sensor_type;location;lat;lon;timestamp;pressure;altitude;pressure_sealevel;temperature;humidity
8075;BME280;4080;42.676;23.372;2023-02-01T00:01:05;95163.47;;;2.23;100.00
8075;BME280;4080;42.676;23.372;2023-02-01T00:03:32;95166.44;;;2.26;100.00
8075;BME280;4080;42.676;23.372;2023-02-01T00:05:59;95152.91;;;2.17;100.00
8075;BME280;4080;42.676;23.372;2023-02-01T00:08:26;95171.66;;;2.26;100.00
8075;BME280;4080;42.676;23.372;2023-02-01T00:10:59;95113.44;;;1.96;100.00
8075;BME280;4080;42.676;23.372;2023-02-01T00:13:28;95138.09;;;2.18;100.00
8075;BME280;4080;42.676;23.372;2023-02-01T00:16:02;95157.78;;;2.32;100.00
8075;BME280;4080;42.676;23.372;2023-02-01T00:18:29;95142.31;;;2.12;100.00
8075;BME280;4080;42.676;23.372;2023-02-01T00:20:55;95167.03;;;2.28;100.00
8075;BME280;4080;42.676;23.372;2023-02-01T00:23:22;95143.28;;;2.18;100.00
8075;BME280;4080;42.676;23.372;2023-02-01T00:25:49;95165.00;;;2.30;100.00
8075;BME280;4080;42.676;23.372;2023-02-01T00:28:15;95151.84;;;2.25;100.00
8075;BME280;4080;42.676;23.372;2023-02-01T00:30:42;95151.63;;;2.27;100.00
8075;BME280;4080;42.676;23.372;2023-02-01T00:33:10;95150.03;;;2.26;100.00
8075;BME280;4080;42.676;23.372;2023-02-01T00:35:37;95138.31;;;2.16;100.00
8075;BME280;4080;42.676;23.372;2023-02-01T00:38:04;95122.34;;;2.06;100.00
8075;BME280;4080;42.676;23.372;2023-02-01T00:40:30;95141.69;;;2.17;100.00
8075;BME280;4080;42.676;23.372;2023-02-01T00:42:57;95137.75;;;2.08;100.00
8075;BME280;4080;42.676;23.372;2023-02-01T00:45:24;95141.72;;;2.10;100.00
8075;BME280;4080;42.676;23.372;2023-02-01T00:47:50;95152.72;;;2.12;100.00
8075;BME280;4080;42.676;23.372;2023-02-01T00:50:19;95147.13;;;2.09;100.00
8075;BME280;4080;42.676;23.372;2023-02-01T00:52:45;95151.56;;;2.08;100.00
8075;BME280;4080;42.676;23.372;2023-02-01T00:55:12;95144.31;;;2.10;100.00
8075;BME280;4080;42.676;23.372;2023-02-01T00:57:38;95139.91;;;2.11;100.00
8075;BME280;4080;42.676;23.372;2023-02-01T01:00:06;95140.13;;;2.09;100.00
8075;BME280;4080;42.676;23.372;2023-02-01T01:02:33;95145.53;;;2.08;100.00
8075;BME280;4080;42.676;23.372;2023-02-01T01:05:00;95134.34;;;2.07;100.00
8075;BME280;4080;42.676;23.372;2023-02-01T01:10:07;95143.75;;;2.08;100.00
8075;BME280;4080;42.676;23.372;2023-02-01T01:12:34;95136.94;;;2.07;100.00
8075;BME280;4080;42.676;23.372;2023-02-01T01:15:00;95136.72;;;2.09;100.00
8075;BME280;4080;42.676;23.372;2023-02-01T01:17:27;95084.94;;;1.76;100.00
8075;BME280;4080;42.676;23.372;2023-02-01T01:19:54;95136.94;;;2.07;100.00
8075;BME280;4080;42.676;23.372;2023-02-01T01:22:20;95134.56;;;2.06;100.00
8075;BME280;4080;42.676;23.372;2023-02-01T01:24:47;95142.16;;;2.07;100.00
8075;BME280;4080;42.676;23.372;2023-02-01T01:27:15;95139.34;;;2.09;100.00
8075;BME280;4080;42.676;23.372;2023-02-01T01:29:48;95142.16;;;2.07;100.00
8075;BME280;4080;42.676;23.372;2023-02-01T01:32:15;95146.34;;;2.08;100.00
8075;BME280;4080;42.676;23.372;2023-02-01T01:34:41;95145.53;;;2.08;100.00
8075;BME280;4080;42.676;23.372;2023-02-01T01:37:08;95145.53;;;2.08;100.00
8075;BME280;4080;42.676;23.372;2023-02-01T01:39:35;95148.53;;;2.11;100.00
8075;BME280;4080;42.676;23.372;2023-02-01T01:42:02;95156.91;;;2.13;100.00
8075;BME280;4080;42.676;23.372;2023-02-01T01:44:57;95161.94;;;2.15;100.00
8075;BME280;4080;42.676;23.372;2023-02-01T01:47:25;95159.91;;;2.17;100.00
8075;BME280;4080;42.676;23.372;2023-02-01T01:49:53;95149.72;;;2.15;100.00
8075;BME280;4080;42.676;23.372;2023-02-01T01:52:20;95110.44;;;1.92;100.00
8075;BME280;4080;42.676;23.372;2023-02-01T01:54:49;95150.16;;;2.06;100.00
8075;BME280;4080;42.676;23.372;2023-02-01T01:57:19;95153.72;;;2.11;100.00
8075;BME280;4080;42.676;23.372;2023-02-01T01:59:54;95142.19;;;2.01;100.00
8075;BME280;4080;42.676;23.372;2023-02-01T02:02:25;95150.38;;;2.04;100.00
8075;BME280;4080;42.676;23.372;2023-02-01T02:04:51;95127.91;;;1.85;100.00
8075;BME280;4080;42.676;23.372;2023-02-01T02:07:22;95153.47;;;1.95;100.00
8075;BME280;4080;42.676;23.372;2023-02-01T02:09:49;95146.72;;;1.87;100.00
8075;BME280;4080;42.676;23.372;2023-02-01T02:12:16;95148.53;;;1.80;100.00
8075;BME280;4080;42.676;23.372;2023-02-01T02:14:43;95138.38;;;1.72;100.00
8075;BME280;4080;42.676;23.372;2023-02-01T02:17:22;95136.63;;;1.66;100.00
8075;BME280;4080;42.676;23.372;2023-02-01T02:23:22;95119.31;;;1.46;100.00
8075;BME280;4080;42.676;23.372;2023-02-01T02:26:13;95121.75;;;1.41;100.00
8075;BME280;4080;42.676;23.372;2023-02-01T02:29:09;95129.38;;;1.36;100.00
8075;BME280;4080;42.676;23.372;2023-02-01T02:34:39;95132.63;;;1.25;100.00
8075;BME280;4080;42.676;23.372;2023-02-01T02:37:13;95137.41;;;1.28;100.00
8075;BME280;4080;42.676;23.372;2023-02-01T02:39:50;95138.41;;;1.27;100.00
8075;BME280;4080;42.676;23.372;2023-02-01T02:42:26;95131.03;;;1.24;100.00
8075;BME280;4080;42.676;23.372;2023-02-01T02:45:18;95130.81;;;1.26;100.00
8075;BME280;4080;42.676;23.372;2023-02-01T02:48:17;95084.56;;;1.03;100.00
8075;BME280;4080;42.676;23.372;2023-02-01T02:50:51;95124.81;;;1.32;100.00
8075;BME280;4080;42.676;23.372;2023-02-01T02:53:46;95123.63;;;1.28;100.00
8075;BME280;4080;42.676;23.372;2023-02-01T02:56:32;95129.19;;;1.31;100.00
8075;BME280;4080;42.676;23.372;2023-02-01T02:59:21;95128.00;;;1.34;100.00
8075;BME280;4080;42.676;23.372;2023-02-01T03:02:08;95126.78;;;1.36;100.00
8075;BME280;4080;42.676;23.372;2023-02-01T03:04:52;95120.81;;;1.29;100.00
8075;BME280;4080;42.676;23.372;2023-02-01T03:07:49;95129.53;;;1.41;100.00
8075;BME280;4080;42.676;23.372;2023-02-01T03:10:26;95142.13;;;1.44;100.00
8075;BME280;4080;42.676;23.372;2023-02-01T03:13:02;95143.72;;;1.45;100.00
8075;BME280;4080;42.676;23.372;2023-02-01T03:15:35;95147.13;;;1.46;100.00
8075;BME280;4080;42.676;23.372;2023-02-01T03:18:08;95152.69;;;1.49;100.00
8075;BME280;4080;42.676;23.372;2023-02-01T03:20:40;95148.09;;;1.51;100.00
8075;BME280;4080;42.676;23.372;2023-02-01T03:23:13;95138.47;;;1.52;100.00
8075;BME280;4080;42.676;23.372;2023-02-01T03:25:42;95151.69;;;1.57;100.00
8075;BME280;4080;42.676;23.372;2023-02-01T03:28:10;95144.91;;;1.49;100.00
8075;BME280;4080;42.676;23.372;2023-02-01T03:30:40;95162.47;;;1.61;100.00
8075;BME280;4080;42.676;23.372;2023-02-01T03:33:11;95162.03;;;1.64;100.00
8075;BME280;4080;42.676;23.372;2023-02-01T03:35:52;95164.06;;;1.62;100.00
8075;BME280;4080;42.676;23.372;2023-02-01T03:38:27;95167.25;;;1.64;100.00
8075;BME280;4080;42.676;23.372;2023-02-01T03:41:00;95167.41;;;1.69;100.00
8075;BME280;4080;42.676;23.372;2023-02-01T03:43:31;95154.06;;;1.52;100.00
8075;BME280;4080;42.676;23.372;2023-02-01T03:46:03;95167.19;;;1.70;100.00
8075;BME280;4080;42.676;23.372;2023-02-01T03:48:32;95169.59;;;1.72;100.00
8075;BME280;4080;42.676;23.372;2023-02-01T03:51:03;95160.03;;;1.66;100.00
8075;BME280;4080;42.676;23.372;2023-02-01T03:53:34;95147.81;;;1.66;100.00
8075;BME280;4080;42.676;23.372;2023-02-01T03:56:03;95171.13;;;1.79;100.00
8075;BME280;4080;42.676;23.372;2023-02-01T03:58:30;95161.75;;;1.78;100.00
8075;BME280;4080;42.676;23.372;2023-02-01T04:00:59;95163.53;;;1.78;100.00
8075;BME280;4080;42.676;23.372;2023-02-01T04:03:26;95165.56;;;1.76;100.00
8075;BME280;4080;42.676;23.372;2023-02-01T04:05:54;95160.16;;;1.77;100.00
8075;BME280;4080;42.676;23.372;2023-02-01T04:08:21;95152.00;;;1.67;100.00
8075;BME280;4080;42.676;23.372;2023-02-01T04:10:50;95143.66;;;1.59;100.00
8075;BME280;4080;42.676;23.372;2023-02-01T04:13:16;95165.56;;;1.76;100.00
8075;BME280;4080;42.676;23.372;2023-02-01T04:15:43;95166.16;;;1.78;100.00
8075;BME280;4080;42.676;23.372;2023-02-01T04:18:10;95162.91;;;1.82;100.00
8075;BME280;4080;42.676;23.372;2023-02-01T04:20:37;95159.53;;;1.82;100.00
8075;BME280;4080;42.676;23.372;2023-02-01T04:23:04;95157.94;;;1.81;100.00
8075;BME280;4080;42.676;23.372;2023-02-01T04:25:30;95141.63;;;1.67;100.00
8075;BME280;4080;42.676;23.372;2023-02-01T04:27:59;95144.75;;;1.76;100.00
8075;BME280;4080;42.676;23.372;2023-02-01T04:30:25;95159.50;;;1.89;100.00
8075;BME280;4080;42.676;23.372;2023-02-01T04:32:52;95162.28;;;1.94;100.00
8075;BME280;4080;42.676;23.372;2023-02-01T04:35:19;95169.06;;;1.95;100.00
8075;BME280;4080;42.676;23.372;2023-02-01T04:37:46;95170.22;;;1.99;100.00
8075;BME280;4080;42.676;23.372;2023-02-01T04:40:13;95166.19;;;2.03;100.00
8075;BME280;4080;42.676;23.372;2023-02-01T04:42:39;95158.78;;;2.06;100.00
8075;BME280;4080;42.676;23.372;2023-02-01T04:45:08;95161.38;;;2.06;100.00
8075;BME280;4080;42.676;23.372;2023-02-01T04:47:35;95168.16;;;2.07;100.00
8075;BME280;4080;42.676;23.372;2023-02-01T04:50:02;95171.34;;;2.09;100.00
8075;BME280;4080;42.676;23.372;2023-02-01T04:52:28;95171.16;;;2.11;100.00
8075;BME280;4080;42.676;23.372;2023-02-01T04:54:55;95164.72;;;2.13;100.00
8075;BME280;4080;42.676;23.372;2023-02-01T04:57:24;95169.94;;;2.13;100.00
8075;BME280;4080;42.676;23.372;2023-02-01T04:59:51;95129.09;;;1.82;100.00
8075;BME280;4080;42.676;23.372;2023-02-01T05:02:19;95178.56;;;2.07;100.00
8075;BME280;4080;42.676;23.372;2023-02-01T05:04:46;95188.13;;;2.13;100.00
8075;BME280;4080;42.676;23.372;2023-02-01T05:07:12;95133.34;;;1.77;100.00
8075;BME280;4080;42.676;23.372;2023-02-01T05:09:39;95197.16;;;2.11;100.00
8075;BME280;4080;42.676;23.372;2023-02-01T05:12:06;95154.94;;;1.84;100.00
8075;BME280;4080;42.676;23.372;2023-02-01T05:14:50;95204.56;;;2.14;100.00
8075;BME280;4080;42.676;23.372;2023-02-01T05:17:16;95205.97;;;2.16;100.00
8075;BME280;4080;42.676;23.372;2023-02-01T05:19:44;95201.56;;;2.17;100.00
8075;BME280;4080;42.676;23.372;2023-02-01T05:22:11;95200.97;;;2.15;100.00
8075;BME280;4080;42.676;23.372;2023-02-01T05:24:38;95176.81;;;2.01;100.00
8075;BME280;4080;42.676;23.372;2023-02-01T05:27:04;95198.75;;;2.18;100.00
8075;BME280;4080;42.676;23.372;2023-02-01T05:29:31;95196.13;;;2.18;100.00
8075;BME280;4080;42.676;23.372;2023-02-01T05:31:58;95184.94;;;2.11;100.00
8075;BME280;4080;42.676;23.372;2023-02-01T05:34:24;95206.72;;;2.24;100.00
8075;BME280;4080;42.676;23.372;2023-02-01T05:36:52;95205.69;;;2.25;100.00
8075;BME280;4080;42.676;23.372;2023-02-01T05:39:19;95201.88;;;2.27;100.00
8075;BME280;4080;42.676;23.372;2023-02-01T05:41:46;95200.06;;;2.28;100.00
8075;BME280;4080;42.676;23.372;2023-02-01T05:44:12;95199.66;;;2.31;100.00
8075;BME280;4080;42.676;23.372;2023-02-01T05:46:39;95207.25;;;2.32;100.00
8075;BME280;4080;42.676;23.372;2023-02-01T05:49:06;95211.44;;;2.33;100.00
8075;BME280;4080;42.676;23.372;2023-02-01T05:51:33;95201.19;;;2.38;100.00
8075;BME280;4080;42.676;23.372;2023-02-01T05:54:01;95207.56;;;2.42;100.00
8075;BME280;4080;42.676;23.372;2023-02-01T05:56:28;95178.81;;;2.31;100.00
8075;BME280;4080;42.676;23.372;2023-02-01T05:58:55;95201.91;;;2.52;100.00
8075;BME280;4080;42.676;23.372;2023-02-01T06:01:21;95205.88;;;2.55;100.00
8075;BME280;4080;42.676;23.372;2023-02-01T06:03:48;95213.06;;;2.59;100.00
8075;BME280;4080;42.676;23.372;2023-02-01T06:06:15;95213.63;;;2.61;100.00
8075;BME280;4080;42.676;23.372;2023-02-01T06:08:41;95211.81;;;2.62;100.00
8075;BME280;4080;42.676;23.372;2023-02-01T06:11:09;95199.88;;;2.54;100.00
8075;BME280;4080;42.676;23.372;2023-02-01T06:13:36;95205.81;;;2.61;100.00
8075;BME280;4080;42.676;23.372;2023-02-01T06:16:04;95213.56;;;2.68;100.00
8075;BME280;4080;42.676;23.372;2023-02-01T06:18:32;95194.19;;;2.64;100.00
8075;BME280;4080;42.676;23.372;2023-02-01T06:20:59;95210.72;;;2.76;100.00
8075;BME280;4080;42.676;23.372;2023-02-01T06:23:27;95208.91;;;2.76;100.00
8075;BME280;4080;42.676;23.372;2023-02-01T06:25:58;95212.47;;;2.82;100.00
8075;BME280;4080;42.676;23.372;2023-02-01T06:28:27;95213.28;;;2.83;100.00
8075;BME280;4080;42.676;23.372;2023-02-01T06:30:54;95214.00;;;2.90;100.00
8075;BME280;4080;42.676;23.372;2023-02-01T06:33:21;95166.97;;;2.60;100.00
8075;BME280;4080;42.676;23.372;2023-02-01T06:35:47;95198.94;;;2.92;100.00
8075;BME280;4080;42.676;23.372;2023-02-01T06:38:14;95217.56;;;2.95;100.00
8075;BME280;4080;42.676;23.372;2023-02-01T06:40:41;95214.38;;;2.93;100.00
8075;BME280;4080;42.676;23.372;2023-02-01T06:43:09;95229.50;;;3.03;100.00
8075;BME280;4080;42.676;23.372;2023-02-01T06:45:37;95229.06;;;3.06;100.00
8075;BME280;4080;42.676;23.372;2023-02-01T06:48:04;95219.03;;;3.09;100.00
8075;BME280;4080;42.676;23.372;2023-02-01T06:50:30;95225.19;;;3.15;100.00
8075;BME280;4080;42.676;23.372;2023-02-01T06:52:57;95230.97;;;3.17;100.00
8075;BME280;4080;42.676;23.372;2023-02-01T06:55:24;95186.72;;;2.92;100.00
8075;BME280;4080;42.676;23.372;2023-02-01T06:57:53;95242.13;;;3.24;100.00
8075;BME280;4080;42.676;23.372;2023-02-01T07:00:21;95242.13;;;3.24;100.00
8075;BME280;4080;42.676;23.372;2023-02-01T07:02:49;95243.72;;;3.25;100.00
8075;BME280;4080;42.676;23.372;2023-02-01T07:05:16;95246.91;;;3.27;100.00
8075;BME280;4080;42.676;23.372;2023-02-01T07:07:43;95230.69;;;3.07;100.00
8075;BME280;4080;42.676;23.372;2023-02-01T07:10:10;95257.91;;;3.29;100.00
8075;BME280;4080;42.676;23.372;2023-02-01T07:12:37;95258.72;;;3.30;100.00
8075;BME280;4080;42.676;23.372;2023-02-01T07:15:05;95251.84;;;3.35;100.00
8075;BME280;4080;42.676;23.372;2023-02-01T07:17:32;95259.47;;;3.37;100.00
8075;BME280;4080;42.676;23.372;2023-02-01T07:20:03;95265.28;;;3.39;100.00
8075;BME280;4080;42.676;23.372;2023-02-01T07:22:30;95250.09;;;3.29;100.00
8075;BME280;4080;42.676;23.372;2023-02-01T07:24:57;95277.66;;;3.43;100.00
8075;BME280;4080;42.676;23.372;2023-02-01T07:27:24;95254.84;;;3.39;100.00
8075;BME280;4080;42.676;23.372;2023-02-01T07:29:51;95275.41;;;3.47;100.00
8075;BME280;4080;42.676;23.372;2023-02-01T07:32:17;95275.63;;;3.46;100.00
8075;BME280;4080;42.676;23.372;2023-02-01T07:34:44;95277.13;;;3.53;100.00
8075;BME280;4080;42.676;23.372;2023-02-01T07:37:12;95281.69;;;3.58;100.00
8075;BME280;4080;42.676;23.372;2023-02-01T07:39:39;95271.34;;;3.51;100.00
8075;BME280;4080;42.676;23.372;2023-02-01T07:42:06;95266.13;;;3.51;100.00
8075;BME280;4080;42.676;23.372;2023-02-01T07:44:33;95279.66;;;3.60;100.00
8075;BME280;4080;42.676;23.372;2023-02-01T07:46:59;95286.69;;;3.59;100.00
8075;BME280;4080;42.676;23.372;2023-02-01T07:49:26;95270.69;;;3.56;100.00
8075;BME280;4080;42.676;23.372;2023-02-01T07:51:53;95278.63;;;3.67;100.00
8075;BME280;4080;42.676;23.372;2023-02-01T07:54:21;95299.91;;;3.83;100.00
8075;BME280;4080;42.676;23.372;2023-02-01T07:56:48;95285.63;;;3.85;100.00
8075;BME280;4080;42.676;23.372;2023-02-01T07:59:15;95307.44;;;3.91;100.00
8075;BME280;4080;42.676;23.372;2023-02-01T08:01:42;95295.25;;;3.85;100.00
8075;BME280;4080;42.676;23.372;2023-02-01T08:04:10;95309.31;;;3.84;100.00
8075;BME280;4080;42.676;23.372;2023-02-01T08:06:37;95312.72;;;3.84;100.00
8075;BME280;4080;42.676;23.372;2023-02-01T08:09:05;95319.31;;;3.87;100.00
8075;BME280;4080;42.676;23.372;2023-02-01T08:11:34;95316.41;;;3.95;100.00
8075;BME280;4080;42.676;23.372;2023-02-01T08:14:03;95293.22;;;3.87;100.00
8075;BME280;4080;42.676;23.372;2023-02-01T08:16:30;95314.31;;;4.03;100.00
8075;BME280;4080;42.676;23.372;2023-02-01T08:18:56;95288.16;;;3.92;100.00
8075;BME280;4080;42.676;23.372;2023-02-01T08:21:25;95294.91;;;3.99;100.00
8075;BME280;4080;42.676;23.372;2023-02-01T08:23:53;95316.19;;;4.15;100.00
8075;BME280;4080;42.676;23.372;2023-02-01T08:26:23;95288.56;;;4.07;100.00
8075;BME280;4080;42.676;23.372;2023-02-01T08:28:53;95291.22;;;4.19;100.00
8075;BME280;4080;42.676;23.372;2023-02-01T08:31:22;95314.63;;;4.44;100.00
8075;BME280;4080;42.676;23.372;2023-02-01T08:33:50;95309.03;;;4.40;100.00
8075;BME280;4080;42.676;23.372;2023-02-01T08:36:18;95321.22;;;4.46;100.00
8075;BME280;4080;42.676;23.372;2023-02-01T08:38:45;95320.88;;;4.54;100.00
8075;BME280;4080;42.676;23.372;2023-02-01T08:41:13;95314.66;;;4.55;100.00
8075;BME280;4080;42.676;23.372;2023-02-01T08:43:41;95299.44;;;4.52;100.00
8075;BME280;4080;42.676;23.372;2023-02-01T08:46:10;95320.28;;;4.71;100.00
8075;BME280;4080;42.676;23.372;2023-02-01T08:48:37;95320.53;;;4.81;100.00
8075;BME280;4080;42.676;23.372;2023-02-01T08:51:05;95312.06;;;4.97;100.00
8075;BME280;4080;42.676;23.372;2023-02-01T08:53:32;95310.34;;;5.14;100.00
8075;BME280;4080;42.676;23.372;2023-02-01T08:55:59;95303.09;;;5.40;100.00
8075;BME280;4080;42.676;23.372;2023-02-01T08:58:26;95318.44;;;5.83;100.00
8075;BME280;4080;42.676;23.372;2023-02-01T09:00:53;95321.22;;;6.28;100.00
8075;BME280;4080;42.676;23.372;2023-02-01T09:03:21;95315.44;;;6.54;99.62
8075;BME280;4080;42.676;23.372;2023-02-01T09:05:47;95322.94;;;6.79;97.44
8075;BME280;4080;42.676;23.372;2023-02-01T09:08:14;95319.94;;;6.88;96.21
8075;BME280;4080;42.676;23.372;2023-02-01T09:10:42;95315.88;;;6.80;94.03
8075;BME280;4080;42.676;23.372;2023-02-01T09:13:08;95333.13;;;6.76;94.72
8075;BME280;4080;42.676;23.372;2023-02-01T09:15:36;95330.69;;;6.58;94.59
8075;BME280;4080;42.676;23.372;2023-02-01T09:18:03;95340.50;;;6.50;95.62
8075;BME280;4080;42.676;23.372;2023-02-01T09:20:31;95313.16;;;6.18;95.53
8075;BME280;4080;42.676;23.372;2023-02-01T09:22:58;95296.94;;;5.93;97.79
8075;BME280;4080;42.676;23.372;2023-02-01T09:25:25;95333.78;;;6.03;99.18
8075;BME280;4080;42.676;23.372;2023-02-01T09:27:52;95330.25;;;6.09;99.58
8075;BME280;4080;42.676;23.372;2023-02-01T09:30:19;95332.94;;;6.26;98.62
8075;BME280;4080;42.676;23.372;2023-02-01T09:32:46;95336.38;;;6.54;98.55
8075;BME280;4080;42.676;23.372;2023-02-01T09:35:12;95310.56;;;6.75;95.75
8075;BME280;4080;42.676;23.372;2023-02-01T09:37:40;95319.81;;;7.28;95.83
8075;BME280;4080;42.676;23.372;2023-02-01T09:40:12;95334.09;;;7.70;94.01
8075;BME280;4080;42.676;23.372;2023-02-01T09:43:01;95279.44;;;7.67;91.63
8075;BME280;4080;42.676;23.372;2023-02-01T09:45:36;95325.06;;;8.00;90.91
8075;BME280;4080;42.676;23.372;2023-02-01T09:48:11;95327.81;;;7.93;90.53
8075;BME280;4080;42.676;23.372;2023-02-01T09:50:43;95326.97;;;7.88;90.21
8075;BME280;4080;42.676;23.372;2023-02-01T09:53:18;95304.19;;;7.71;91.84
8075;BME280;4080;42.676;23.372;2023-02-01T09:55:49;95298.69;;;7.73;92.23
8075;BME280;4080;42.676;23.372;2023-02-01T09:58:20;95240.13;;;7.34;90.57
8075;BME280;4080;42.676;23.372;2023-02-01T10:00:52;95275.06;;;7.73;89.92
8075;BME280;4080;42.676;23.372;2023-02-01T10:03:19;95221.72;;;7.51;90.18
8075;BME280;4080;42.676;23.372;2023-02-01T10:06:02;95291.25;;;7.87;88.76
8075;BME280;4080;42.676;23.372;2023-02-01T10:08:40;95275.63;;;7.58;90.14
8075;BME280;4080;42.676;23.372;2023-02-01T10:11:21;95297.88;;;7.72;89.67
8075;BME280;4080;42.676;23.372;2023-02-01T10:13:54;95287.88;;;7.91;91.63
8075;BME280;4080;42.676;23.372;2023-02-01T10:16:36;95278.13;;;8.30;90.61
8075;BME280;4080;42.676;23.372;2023-02-01T10:19:19;95258.03;;;9.00;87.24
8075;BME280;4080;42.676;23.372;2023-02-01T10:21:54;95233.41;;;9.58;80.93
8075;BME280;4080;42.676;23.372;2023-02-01T10:24:36;95241.00;;;10.07;80.96
8075;BME280;4080;42.676;23.372;2023-02-01T10:27:12;95257.31;;;10.87;76.73
8075;BME280;4080;42.676;23.372;2023-02-01T10:29:42;95260.50;;;11.04;74.40
8075;BME280;4080;42.676;23.372;2023-02-01T10:32:13;95262.31;;;11.19;74.77
8075;BME280;4080;42.676;23.372;2023-02-01T10:34:42;95256.47;;;11.58;74.69
8075;BME280;4080;42.676;23.372;2023-02-01T10:37:18;95201.59;;;11.34;70.01
8075;BME280;4080;42.676;23.372;2023-02-01T10:39:49;95231.41;;;11.50;71.89
8075;BME280;4080;42.676;23.372;2023-02-01T10:42:17;95245.34;;;11.81;71.78
8075;BME280;4080;42.676;23.372;2023-02-01T10:44:46;95243.38;;;12.12;69.51
8075;BME280;4080;42.676;23.372;2023-02-01T10:47:13;95244.28;;;12.47;68.77
8075;BME280;4080;42.676;23.372;2023-02-01T10:49:45;95240.69;;;12.71;66.78
8075;BME280;4080;42.676;23.372;2023-02-01T10:52:17;95223.09;;;12.52;66.94
8075;BME280;4080;42.676;23.372;2023-02-01T10:54:48;95231.69;;;12.72;67.05
8075;BME280;4080;42.676;23.372;2023-02-01T10:57:21;95158.63;;;12.37;65.56
8075;BME280;4080;42.676;23.372;2023-02-01T10:59:49;95219.25;;;12.73;64.50
8075;BME280;4080;42.676;23.372;2023-02-01T11:02:23;95231.44;;;12.25;64.98
8075;BME280;4080;42.676;23.372;2023-02-01T11:04:59;95239.94;;;12.17;67.54
8075;BME280;4080;42.676;23.372;2023-02-01T11:07:27;95221.50;;;12.01;65.26
8075;BME280;4080;42.676;23.372;2023-02-01T11:09:55;95228.88;;;12.04;67.32
8075;BME280;4080;42.676;23.372;2023-02-01T11:12:29;95232.13;;;11.81;66.99
8075;BME280;4080;42.676;23.372;2023-02-01T11:15:03;95242.53;;;11.37;68.23
8075;BME280;4080;42.676;23.372;2023-02-01T11:17:42;95222.22;;;10.81;70.23
8075;BME280;4080;42.676;23.372;2023-02-01T11:20:14;95216.06;;;10.35;72.04
8075;BME280;4080;42.676;23.372;2023-02-01T11:22:46;95206.97;;;10.01;73.38
8075;BME280;4080;42.676;23.372;2023-02-01T11:25:16;95200.31;;;9.78;73.44
8075;BME280;4080;42.676;23.372;2023-02-01T11:27:44;95209.22;;;9.67;73.73
8075;BME280;4080;42.676;23.372;2023-02-01T11:30:17;95194.22;;;9.67;75.19
8075;BME280;4080;42.676;23.372;2023-02-01T11:32:46;95194.47;;;9.65;75.06
8075;BME280;4080;42.676;23.372;2023-02-01T11:35:18;95194.25;;;9.77;75.26
8075;BME280;4080;42.676;23.372;2023-02-01T11:37:50;95189.34;;;10.06;75.61
8075;BME280;4080;42.676;23.372;2023-02-01T11:40:28;95199.41;;;10.14;73.30
8075;BME280;4080;42.676;23.372;2023-02-01T11:42:57;95187.53;;;10.17;74.18
8075;BME280;4080;42.676;23.372;2023-02-01T11:45:26;95188.38;;;10.27;72.75
8075;BME280;4080;42.676;23.372;2023-02-01T11:47:54;95190.00;;;10.44;72.59
8075;BME280;4080;42.676;23.372;2023-02-01T11:50:28;95179.19;;;10.61;72.89
8075;BME280;4080;42.676;23.372;2023-02-01T11:53:07;95185.78;;;10.83;71.13
8075;BME280;4080;42.676;23.372;2023-02-01T11:55:53;95181.31;;;10.84;71.23
8075;BME280;4080;42.676;23.372;2023-02-01T11:58:50;95172.84;;;10.62;70.08
8075;BME280;4080;42.676;23.372;2023-02-01T12:01:34;95170.44;;;10.35;72.42
8075;BME280;4080;42.676;23.372;2023-02-01T12:04:24;95170.44;;;10.40;71.89
8075;BME280;4080;42.676;23.372;2023-02-01T12:07:00;95164.38;;;10.39;72.13
8075;BME280;4080;42.676;23.372;2023-02-01T12:09:38;95164.63;;;10.22;71.92
8075;BME280;4080;42.676;23.372;2023-02-01T12:12:17;95150.59;;;9.96;73.13
8075;BME280;4080;42.676;23.372;2023-02-01T12:14:59;95117.03;;;9.61;73.30
8075;BME280;4080;42.676;23.372;2023-02-01T12:17:52;95157.06;;;9.69;74.72
8075;BME280;4080;42.676;23.372;2023-02-01T12:20:36;95147.28;;;9.54;75.52
8075;BME280;4080;42.676;23.372;2023-02-01T12:23:19;95151.66;;;9.33;76.60
8075;BME280;4080;42.676;23.372;2023-02-01T12:26:00;95166.09;;;9.25;76.88
8075;BME280;4080;42.676;23.372;2023-02-01T12:28:45;95155.75;;;9.14;78.04
8075;BME280;4080;42.676;23.372;2023-02-01T12:31:34;95154.41;;;9.06;77.95
8075;BME280;4080;42.676;23.372;2023-02-01T12:34:20;95155.16;;;9.01;78.93
8075;BME280;4080;42.676;23.372;2023-02-01T12:36:56;95149.78;;;8.86;78.86
8075;BME280;4080;42.676;23.372;2023-02-01T12:39:31;95116.66;;;8.48;79.01
8075;BME280;4080;42.676;23.372;2023-02-01T12:42:01;95162.66;;;8.51;79.83
8075;BME280;4080;42.676;23.372;2023-02-01T12:44:39;95123.41;;;8.12;81.46
8075;BME280;4080;42.676;23.372;2023-02-01T12:47:14;95149.16;;;8.37;81.19
8075;BME280;4080;42.676;23.372;2023-02-01T12:49:47;95156.50;;;8.35;80.34
8075;BME280;4080;42.676;23.372;2023-02-01T12:52:18;95156.34;;;8.25;79.51
8075;BME280;4080;42.676;23.372;2023-02-01T12:54:49;95147.81;;;8.34;80.73
8075;BME280;4080;42.676;23.372;2023-02-01T12:57:21;95155.47;;;8.36;80.46
8075;BME280;4080;42.676;23.372;2023-02-01T12:59:54;95163.63;;;8.39;79.55
8075;BME280;4080;42.676;23.372;2023-02-01T13:02:28;95150.25;;;8.41;80.03
8075;BME280;4080;42.676;23.372;2023-02-01T13:05:02;95161.44;;;8.58;79.63
8075;BME280;4080;42.676;23.372;2023-02-01T13:07:36;95157.22;;;8.57;79.93
8075;BME280;4080;42.676;23.372;2023-02-01T13:10:12;95150.75;;;8.70;79.66
8075;BME280;4080;42.676;23.372;2023-02-01T13:12:47;95158.59;;;8.65;78.94
8075;BME280;4080;42.676;23.372;2023-02-01T13:15:20;95157.53;;;8.66;78.61
8075;BME280;4080;42.676;23.372;2023-02-01T13:17:49;95131.59;;;8.43;77.76
8075;BME280;4080;42.676;23.372;2023-02-01T13:20:22;95134.81;;;8.55;78.23
8075;BME280;4080;42.676;23.372;2023-02-01T13:22:53;95156.47;;;8.62;77.80
8075;BME280;4080;42.676;23.372;2023-02-01T13:25:29;95158.84;;;8.63;77.67
8075;BME280;4080;42.676;23.372;2023-02-01T13:28:03;95145.84;;;8.52;76.81
8075;BME280;4080;42.676;23.372;2023-02-01T13:30:43;95138.94;;;8.40;78.13
8075;BME280;4080;42.676;23.372;2023-02-01T13:33:26;95159.78;;;8.25;78.51
8075;BME280;4080;42.676;23.372;2023-02-01T13:36:08;95140.47;;;8.09;79.36
8075;BME280;4080;42.676;23.372;2023-02-01T13:41:52;95139.84;;;7.97;78.78
8075;BME280;4080;42.676;23.372;2023-02-01T13:44:25;95144.66;;;7.84;79.30